sensor_id;sensor_type;location;lat;lon;timestamp;P1;durP1;ratioP1;P2;durP2;ratioP2
69765;SDS011;57039;48.014;21.384;2023-03-14T00:00:35;18.40;;;10.88;;
69765;SDS011;57039;48.014;21.384;2023-03-14T00:01:39;19.70;;;10.73;;
69765;SDS011;57039;48.014;21.384;2023-03-14T00:02:41;17.80;;;10.57;;
69765;SDS011;57039;48.014;21.384;2023-03-14T00:03:44;18.27;;;10.43;;
69765;SDS011;57039;48.014;21.384;2023-03-14T00:04:47;19.75;;;10.57;;
69765;SDS011;57039;48.014;21.384;2023-03-14T00:05:50;19.87;;;10.70;;
69765;SDS011;57039;48.014;21.384;2023-03-14T00:06:53;17.63;;;9.80;;
69765;SDS011;57039;48.014;21.384;2023-03-14T00:07:56;20.98;;;10.90;;
69765;SDS011;57039;48.014;21.384;2023-03-14T00:08:59;15.95;;;9.55;;
69765;SDS011;57039;48.014;21.384;2023-03-14T00:10:06;18.80;;;10.88;;
69765;SDS011;57039;48.014;21.384;2023-03-14T00:11:14;20.52;;;10.82;;
69765;SDS011;57039;48.014;21.384;2023-03-14T00:12:19;17.30;;;10.00;;
69765;SDS011;57039;48.014;21.384;2023-03-14T00:13:22;20.95;;;10.00;;
69765;SDS011;57039;48.014;21.384;2023-03-14T00:14:25;18.35;;;10.60;;
69765;SDS011;57039;48.014;21.384;2023-03-14T00:15:28;18.83;;;9.00;;
69765;SDS011;57039;48.014;21.384;2023-03-14T00:16:31;17.07;;;9.70;;
69765;SDS011;57039;48.014;21.384;2023-03-14T00:17:34;14.70;;;9.27;;
69765;SDS011;57039;48.014;21.384;2023-03-14T00:18:39;17.08;;;9.23;;
69765;SDS011;57039;48.014;21.384;2023-03-14T00:19:42;17.25;;;9.82;;
69765;SDS011;57039;48.014;21.384;2023-03-14T00:20:45;17.00;;;9.55;;
69765;SDS011;57039;48.014;21.384;2023-03-14T00:21:48;16.00;;;8.68;;
69765;SDS011;57039;48.014;21.384;2023-03-14T00:22:51;18.55;;;10.20;;
69765;SDS011;57039;48.014;21.384;2023-03-14T00:23:54;16.37;;;9.43;;
69765;SDS011;57039;48.014;21.384;2023-03-14T00:24:57;18.05;;;9.00;;
69765;SDS011;57039;48.014;21.384;2023-03-14T00:26:04;15.07;;;9.65;;
69765;SDS011;57039;48.014;21.384;2023-03-14T00:27:08;21.50;;;9.90;;
69765;SDS011;57039;48.014;21.384;2023-03-14T00:28:13;16.90;;;9.43;;
69765;SDS011;57039;48.014;21.384;2023-03-14T00:29:16;19.12;;;9.60;;
69765;SDS011;57039;48.014;21.384;2023-03-14T00:30:20;16.67;;;9.65;;
69765;SDS011;57039;48.014;21.384;2023-03-14T00:31:23;18.48;;;10.18;;
69765;SDS011;57039;48.014;21.384;2023-03-14T00:32:26;20.12;;;10.65;;
69765;SDS011;57039;48.014;21.384;2023-03-14T00:33:30;17.95;;;9.75;;
69765;SDS011;57039;48.014;21.384;2023-03-14T00:34:33;16.55;;;10.05;;
69765;SDS011;57039;48.014;21.384;2023-03-14T00:35:35;16.90;;;9.63;;
69765;SDS011;57039;48.014;21.384;2023-03-14T00:36:38;17.55;;;10.27;;
69765;SDS011;57039;48.014;21.384;2023-03-14T00:37:41;19.53;;;10.20;;
69765;SDS011;57039;48.014;21.384;2023-03-14T00:38:45;17.00;;;9.93;;
69765;SDS011;57039;48.014;21.384;2023-03-14T00:39:51;17.30;;;9.27;;
69765;SDS011;57039;48.014;21.384;2023-03-14T00:40:54;15.07;;;8.40;;
69765;SDS011;57039;48.014;21.384;2023-03-14T00:41:57;18.00;;;10.00;;
69765;SDS011;57039;48.014;21.384;2023-03-14T00:43:00;16.95;;;9.30;;
69765;SDS011;57039;48.014;21.384;2023-03-14T00:44:03;16.77;;;9.40;;
69765;SDS011;57039;48.014;21.384;2023-03-14T00:45:06;18.35;;;9.90;;
69765;SDS011;57039;48.014;21.384;2023-03-14T00:46:11;14.55;;;9.00;;
69765;SDS011;57039;48.014;21.384;2023-03-14T00:47:15;17.95;;;9.35;;
69765;SDS011;57039;48.014;21.384;2023-03-14T00:48:18;18.27;;;9.53;;
69765;SDS011;57039;48.014;21.384;2023-03-14T00:49:23;18.20;;;9.87;;
69765;SDS011;57039;48.014;21.384;2023-03-14T00:50:26;17.37;;;9.45;;
69765;SDS011;57039;48.014;21.384;2023-03-14T00:51:28;19.08;;;10.50;;
69765;SDS011;57039;48.014;21.384;2023-03-14T00:52:31;17.12;;;9.93;;
69765;SDS011;57039;48.014;21.384;2023-03-14T00:53:35;17.95;;;10.30;;
69765;SDS011;57039;48.014;21.384;2023-03-14T00:54:40;17.27;;;9.90;;
69765;SDS011;57039;48.014;21.384;2023-03-14T00:55:43;20.12;;;11.02;;
69765;SDS011;57039;48.014;21.384;2023-03-14T00:56:46;17.87;;;10.25;;
69765;SDS011;57039;48.014;21.384;2023-03-14T00:57:49;19.30;;;10.38;;
69765;SDS011;57039;48.014;21.384;2023-03-14T00:58:55;19.73;;;10.47;;
69765;SDS011;57039;48.014;21.384;2023-03-14T00:59:59;19.43;;;10.33;;
69765;SDS011;57039;48.014;21.384;2023-03-14T01:01:05;17.87;;;9.65;;
69765;SDS011;57039;48.014;21.384;2023-03-14T01:02:13;18.33;;;10.60;;
69765;SDS011;57039;48.014;21.384;2023-03-14T01:03:16;20.00;;;10.48;;
69765;SDS011;57039;48.014;21.384;2023-03-14T01:04:19;19.40;;;10.63;;
69765;SDS011;57039;48.014;21.384;2023-03-14T01:05:22;20.48;;;10.15;;
69765;SDS011;57039;48.014;21.384;2023-03-14T01:06:26;18.55;;;10.55;;
69765;SDS011;57039;48.014;21.384;2023-03-14T01:07:30;18.37;;;10.80;;
69765;SDS011;57039;48.014;21.384;2023-03-14T01:08:33;21.27;;;11.85;;
69765;SDS011;57039;48.014;21.384;2023-03-14T01:09:36;20.77;;;11.03;;
69765;SDS011;57039;48.014;21.384;2023-03-14T01:10:40;20.40;;;11.60;;
69765;SDS011;57039;48.014;21.384;2023-03-14T01:11:44;19.27;;;11.30;;
69765;SDS011;57039;48.014;21.384;2023-03-14T01:12:48;18.65;;;10.90;;
69765;SDS011;57039;48.014;21.384;2023-03-14T01:13:52;23.33;;;12.18;;
69765;SDS011;57039;48.014;21.384;2023-03-14T01:14:55;25.20;;;12.50;;
69765;SDS011;57039;48.014;21.384;2023-03-14T01:16:02;20.12;;;12.35;;
69765;SDS011;57039;48.014;21.384;2023-03-14T01:17:11;22.80;;;11.77;;
69765;SDS011;57039;48.014;21.384;2023-03-14T01:18:15;19.23;;;11.05;;
69765;SDS011;57039;48.014;21.384;2023-03-14T01:19:18;19.90;;;11.35;;
69765;SDS011;57039;48.014;21.384;2023-03-14T01:20:21;20.70;;;11.03;;
69765;SDS011;57039;48.014;21.384;2023-03-14T01:21:25;22.77;;;12.37;;
69765;SDS011;57039;48.014;21.384;2023-03-14T01:22:30;22.25;;;11.70;;
69765;SDS011;57039;48.014;21.384;2023-03-14T01:23:33;21.98;;;12.68;;
69765;SDS011;57039;48.014;21.384;2023-03-14T01:24:36;23.17;;;13.68;;
69765;SDS011;57039;48.014;21.384;2023-03-14T01:25:40;20.33;;;12.35;;
69765;SDS011;57039;48.014;21.384;2023-03-14T01:26:44;23.17;;;12.45;;
69765;SDS011;57039;48.014;21.384;2023-03-14T01:27:47;22.23;;;12.05;;
69765;SDS011;57039;48.014;21.384;2023-03-14T01:28:51;19.33;;;10.63;;
69765;SDS011;57039;48.014;21.384;2023-03-14T01:29:56;21.65;;;12.23;;
69765;SDS011;57039;48.014;21.384;2023-03-14T01:31:02;20.83;;;11.97;;
69765;SDS011;57039;48.014;21.384;2023-03-14T01:32:06;20.03;;;12.33;;
69765;SDS011;57039;48.014;21.384;2023-03-14T01:33:10;19.50;;;10.80;;
69765;SDS011;57039;48.014;21.384;2023-03-14T01:34:17;20.12;;;11.52;;
69765;SDS011;57039;48.014;21.384;2023-03-14T01:35:20;20.12;;;12.10;;
69765;SDS011;57039;48.014;21.384;2023-03-14T01:36:23;21.77;;;12.75;;
69765;SDS011;57039;48.014;21.384;2023-03-14T01:37:26;22.00;;;11.85;;
69765;SDS011;57039;48.014;21.384;2023-03-14T01:38:29;20.25;;;11.82;;
69765;SDS011;57039;48.014;21.384;2023-03-14T01:39:34;18.75;;;11.40;;
69765;SDS011;57039;48.014;21.384;2023-03-14T01:40:43;22.17;;;11.07;;
69765;SDS011;57039;48.014;21.384;2023-03-14T01:41:47;18.90;;;10.80;;
69765;SDS011;57039;48.014;21.384;2023-03-14T01:42:54;21.90;;;11.17;;
69765;SDS011;57039;48.014;21.384;2023-03-14T01:43:58;20.30;;;11.12;;
69765;SDS011;57039;48.014;21.384;2023-03-14T01:45:01;20.17;;;11.00;;
69765;SDS011;57039;48.014;21.384;2023-03-14T01:47:08;21.55;;;10.68;;
69765;SDS011;57039;48.014;21.384;2023-03-14T01:48:11;21.45;;;10.73;;
69765;SDS011;57039;48.014;21.384;2023-03-14T01:50:25;21.92;;;10.93;;
69765;SDS011;57039;48.014;21.384;2023-03-14T01:52:36;18.73;;;10.77;;
69765;SDS011;57039;48.014;21.384;2023-03-14T01:53:40;20.67;;;10.60;;
69765;SDS011;57039;48.014;21.384;2023-03-14T01:56:05;19.77;;;10.30;;
69765;SDS011;57039;48.014;21.384;2023-03-14T01:57:14;20.62;;;11.20;;
69765;SDS011;57039;48.014;21.384;2023-03-14T01:58:21;20.73;;;10.35;;
69765;SDS011;57039;48.014;21.384;2023-03-14T01:59:26;18.45;;;10.15;;
69765;SDS011;57039;48.014;21.384;2023-03-14T02:00:32;20.00;;;9.88;;
69765;SDS011;57039;48.014;21.384;2023-03-14T02:01:36;18.92;;;11.45;;
69765;SDS011;57039;48.014;21.384;2023-03-14T02:02:44;20.88;;;10.65;;
69765;SDS011;57039;48.014;21.384;2023-03-14T02:03:56;20.00;;;10.30;;
69765;SDS011;57039;48.014;21.384;2023-03-14T02:05:03;20.63;;;10.83;;
69765;SDS011;57039;48.014;21.384;2023-03-14T02:06:07;28.35;;;13.70;;
69765;SDS011;57039;48.014;21.384;2023-03-14T02:07:13;19.35;;;10.77;;
69765;SDS011;57039;48.014;21.384;2023-03-14T02:08:20;22.20;;;10.65;;
69765;SDS011;57039;48.014;21.384;2023-03-14T02:09:24;18.08;;;10.65;;
69765;SDS011;57039;48.014;21.384;2023-03-14T02:10:31;24.40;;;11.05;;
69765;SDS011;57039;48.014;21.384;2023-03-14T02:11:38;17.58;;;11.30;;
69765;SDS011;57039;48.014;21.384;2023-03-14T02:12:41;20.85;;;11.52;;
69765;SDS011;57039;48.014;21.384;2023-03-14T02:13:45;20.83;;;11.02;;
69765;SDS011;57039;48.014;21.384;2023-03-14T02:14:49;21.37;;;11.00;;
69765;SDS011;57039;48.014;21.384;2023-03-14T02:15:51;25.00;;;14.53;;
69765;SDS011;57039;48.014;21.384;2023-03-14T02:16:56;21.17;;;12.37;;
69765;SDS011;57039;48.014;21.384;2023-03-14T02:18:01;24.75;;;15.55;;
69765;SDS011;57039;48.014;21.384;2023-03-14T02:19:08;20.65;;;13.30;;
69765;SDS011;57039;48.014;21.384;2023-03-14T02:21:38;19.77;;;10.90;;
69765;SDS011;57039;48.014;21.384;2023-03-14T02:22:53;21.25;;;10.88;;
69765;SDS011;57039;48.014;21.384;2023-03-14T02:25:42;17.80;;;10.25;;
69765;SDS011;57039;48.014;21.384;2023-03-14T02:27:07;18.07;;;9.70;;
69765;SDS011;57039;48.014;21.384;2023-03-14T02:28:14;18.13;;;10.40;;
69765;SDS011;57039;48.014;21.384;2023-03-14T02:29:21;18.65;;;9.82;;
69765;SDS011;57039;48.014;21.384;2023-03-14T02:30:26;19.45;;;9.98;;
69765;SDS011;57039;48.014;21.384;2023-03-14T02:31:31;18.83;;;9.88;;
69765;SDS011;57039;48.014;21.384;2023-03-14T02:32:36;17.08;;;9.93;;
69765;SDS011;57039;48.014;21.384;2023-03-14T02:33:42;19.58;;;9.98;;
69765;SDS011;57039;48.014;21.384;2023-03-14T02:34:46;17.02;;;9.98;;
69765;SDS011;57039;48.014;21.384;2023-03-14T02:35:53;20.95;;;10.48;;
69765;SDS011;57039;48.014;21.384;2023-03-14T02:36:57;19.60;;;9.65;;
69765;SDS011;57039;48.014;21.384;2023-03-14T02:38:26;17.37;;;9.43;;
69765;SDS011;57039;48.014;21.384;2023-03-14T02:39:31;18.93;;;9.30;;
69765;SDS011;57039;48.014;21.384;2023-03-14T02:40:39;18.05;;;10.50;;
69765;SDS011;57039;48.014;21.384;2023-03-14T02:41:42;17.92;;;9.55;;
69765;SDS011;57039;48.014;21.384;2023-03-14T02:42:47;18.83;;;9.45;;
69765;SDS011;57039;48.014;21.384;2023-03-14T02:43:51;18.02;;;9.82;;
69765;SDS011;57039;48.014;21.384;2023-03-14T02:44:55;19.62;;;9.95;;
69765;SDS011;57039;48.014;21.384;2023-03-14T02:46:22;15.65;;;9.10;;
69765;SDS011;57039;48.014;21.384;2023-03-14T02:47:29;18.15;;;9.23;;
69765;SDS011;57039;48.014;21.384;2023-03-14T02:48:45;15.65;;;9.40;;
69765;SDS011;57039;48.014;21.384;2023-03-14T02:50:07;16.97;;;9.27;;
69765;SDS011;57039;48.014;21.384;2023-03-14T02:51:13;20.03;;;10.17;;
69765;SDS011;57039;48.014;21.384;2023-03-14T02:52:20;20.83;;;9.43;;
69765;SDS011;57039;48.014;21.384;2023-03-14T02:53:24;18.77;;;9.80;;
69765;SDS011;57039;48.014;21.384;2023-03-14T02:54:29;19.80;;;10.85;;
69765;SDS011;57039;48.014;21.384;2023-03-14T02:55:33;19.05;;;10.70;;
69765;SDS011;57039;48.014;21.384;2023-03-14T02:56:37;19.12;;;10.00;;
69765;SDS011;57039;48.014;21.384;2023-03-14T02:57:41;21.20;;;11.27;;
69765;SDS011;57039;48.014;21.384;2023-03-14T02:58:49;18.25;;;9.80;;
69765;SDS011;57039;48.014;21.384;2023-03-14T02:59:52;19.62;;;10.60;;
69765;SDS011;57039;48.014;21.384;2023-03-14T03:00:56;17.83;;;9.30;;
69765;SDS011;57039;48.014;21.384;2023-03-14T03:01:59;21.60;;;11.17;;
69765;SDS011;57039;48.014;21.384;2023-03-14T03:03:02;19.73;;;10.27;;
69765;SDS011;57039;48.014;21.384;2023-03-14T03:04:05;20.92;;;11.23;;
69765;SDS011;57039;48.014;21.384;2023-03-14T03:05:08;23.25;;;12.57;;
69765;SDS011;57039;48.014;21.384;2023-03-14T03:06:11;21.48;;;12.10;;
69765;SDS011;57039;48.014;21.384;2023-03-14T03:07:14;17.40;;;9.63;;
69765;SDS011;57039;48.014;21.384;2023-03-14T03:08:19;22.08;;;11.05;;
69765;SDS011;57039;48.014;21.384;2023-03-14T03:09:23;21.40;;;10.23;;
69765;SDS011;57039;48.014;21.384;2023-03-14T03:10:26;19.17;;;9.30;;
69765;SDS011;57039;48.014;21.384;2023-03-14T03:11:30;19.70;;;10.73;;
69765;SDS011;57039;48.014;21.384;2023-03-14T03:12:34;23.37;;;11.27;;
69765;SDS011;57039;48.014;21.384;2023-03-14T03:13:36;20.05;;;10.00;;
69765;SDS011;57039;48.014;21.384;2023-03-14T03:14:40;20.00;;;9.93;;
69765;SDS011;57039;48.014;21.384;2023-03-14T03:15:43;25.30;;;11.88;;
69765;SDS011;57039;48.014;21.384;2023-03-14T03:16:46;25.35;;;11.52;;
69765;SDS011;57039;48.014;21.384;2023-03-14T03:17:49;33.42;;;14.40;;
69765;SDS011;57039;48.014;21.384;2023-03-14T03:18:52;23.58;;;10.93;;
69765;SDS011;57039;48.014;21.384;2023-03-14T03:19:55;23.75;;;10.63;;
69765;SDS011;57039;48.014;21.384;2023-03-14T03:21:02;24.73;;;10.30;;
69765;SDS011;57039;48.014;21.384;2023-03-14T03:22:07;20.57;;;9.77;;
69765;SDS011;57039;48.014;21.384;2023-03-14T03:23:10;18.47;;;8.87;;
69765;SDS011;57039;48.014;21.384;2023-03-14T03:24:13;20.83;;;10.00;;
69765;SDS011;57039;48.014;21.384;2023-03-14T03:25:16;32.08;;;13.73;;
69765;SDS011;57039;48.014;21.384;2023-03-14T03:26:20;36.95;;;14.38;;
69765;SDS011;57039;48.014;21.384;2023-03-14T03:27:23;34.47;;;14.05;;
69765;SDS011;57039;48.014;21.384;2023-03-14T03:28:27;25.77;;;11.10;;
69765;SDS011;57039;48.014;21.384;2023-03-14T03:29:31;20.73;;;10.18;;
69765;SDS011;57039;48.014;21.384;2023-03-14T03:30:38;24.80;;;10.45;;
69765;SDS011;57039;48.014;21.384;2023-03-14T03:31:42;20.90;;;10.25;;
69765;SDS011;57039;48.014;21.384;2023-03-14T03:32:48;33.30;;;12.67;;
69765;SDS011;57039;48.014;21.384;2023-03-14T03:33:51;25.60;;;10.77;;
69765;SDS011;57039;48.014;21.384;2023-03-14T03:34:54;39.42;;;13.82;;
69765;SDS011;57039;48.014;21.384;2023-03-14T03:35:56;32.45;;;11.68;;
69765;SDS011;57039;48.014;21.384;2023-03-14T03:37:00;33.08;;;13.25;;
69765;SDS011;57039;48.014;21.384;2023-03-14T03:38:03;24.80;;;10.27;;
69765;SDS011;57039;48.014;21.384;2023-03-14T03:39:07;27.20;;;11.32;;
69765;SDS011;57039;48.014;21.384;2023-03-14T03:40:11;21.55;;;10.07;;
69765;SDS011;57039;48.014;21.384;2023-03-14T03:41:15;15.02;;;8.63;;
69765;SDS011;57039;48.014;21.384;2023-03-14T03:42:18;17.83;;;9.18;;
69765;SDS011;57039;48.014;21.384;2023-03-14T03:43:21;32.80;;;12.90;;
69765;SDS011;57039;48.014;21.384;2023-03-14T03:44:24;19.93;;;9.10;;
69765;SDS011;57039;48.014;21.384;2023-03-14T03:45:27;16.12;;;8.77;;
69765;SDS011;57039;48.014;21.384;2023-03-14T03:46:30;16.10;;;8.15;;
69765;SDS011;57039;48.014;21.384;2023-03-14T03:47:34;15.05;;;8.18;;
69765;SDS011;57039;48.014;21.384;2023-03-14T03:48:40;32.33;;;14.00;;
69765;SDS011;57039;48.014;21.384;2023-03-14T03:49:44;23.33;;;10.27;;
69765;SDS011;57039;48.014;21.384;2023-03-14T03:50:52;20.65;;;10.15;;
69765;SDS011;57039;48.014;21.384;2023-03-14T03:51:57;26.62;;;11.98;;
69765;SDS011;57039;48.014;21.384;2023-03-14T03:53:01;35.95;;;15.10;;
69765;SDS011;57039;48.014;21.384;2023-03-14T03:54:05;35.37;;;14.60;;
69765;SDS011;57039;48.014;21.384;2023-03-14T03:55:09;31.50;;;13.53;;
69765;SDS011;57039;48.014;21.384;2023-03-14T03:56:13;36.83;;;15.75;;
69765;SDS011;57039;48.014;21.384;2023-03-14T03:57:17;28.62;;;12.52;;
69765;SDS011;57039;48.014;21.384;2023-03-14T03:58:21;29.00;;;11.57;;
69765;SDS011;57039;48.014;21.384;2023-03-14T03:59:26;40.65;;;15.35;;
69765;SDS011;57039;48.014;21.384;2023-03-14T04:00:31;44.83;;;15.40;;
69765;SDS011;57039;48.014;21.384;2023-03-14T04:01:37;30.50;;;13.20;;
69765;SDS011;57039;48.014;21.384;2023-03-14T04:02:40;19.75;;;9.80;;
69765;SDS011;57039;48.014;21.384;2023-03-14T04:03:45;27.75;;;12.32;;
69765;SDS011;57039;48.014;21.384;2023-03-14T04:04:50;34.90;;;13.47;;
69765;SDS011;57039;48.014;21.384;2023-03-14T04:06:08;32.20;;;14.10;;
69765;SDS011;57039;48.014;21.384;2023-03-14T04:07:14;27.35;;;11.75;;
69765;SDS011;57039;48.014;21.384;2023-03-14T04:08:22;37.83;;;14.85;;
69765;SDS011;57039;48.014;21.384;2023-03-14T04:09:26;43.33;;;17.83;;
69765;SDS011;57039;48.014;21.384;2023-03-14T04:10:35;35.63;;;15.13;;
69765;SDS011;57039;48.014;21.384;2023-03-14T04:11:40;34.85;;;14.05;;
69765;SDS011;57039;48.014;21.384;2023-03-14T04:12:44;40.38;;;17.65;;
69765;SDS011;57039;48.014;21.384;2023-03-14T04:13:48;38.13;;;16.92;;
69765;SDS011;57039;48.014;21.384;2023-03-14T04:14:51;32.90;;;15.55;;
69765;SDS011;57039;48.014;21.384;2023-03-14T04:15:55;23.10;;;12.03;;
69765;SDS011;57039;48.014;21.384;2023-03-14T04:16:59;24.50;;;12.27;;
69765;SDS011;57039;48.014;21.384;2023-03-14T04:18:05;26.75;;;11.82;;
69765;SDS011;57039;48.014;21.384;2023-03-14T04:19:08;24.52;;;11.90;;
69765;SDS011;57039;48.014;21.384;2023-03-14T04:20:12;36.42;;;14.55;;
69765;SDS011;57039;48.014;21.384;2023-03-14T04:21:15;28.70;;;14.00;;
69765;SDS011;57039;48.014;21.384;2023-03-14T04:22:18;29.12;;;13.65;;
69765;SDS011;57039;48.014;21.384;2023-03-14T04:23:22;27.05;;;12.37;;
69765;SDS011;57039;48.014;21.384;2023-03-14T04:24:29;22.48;;;11.45;;
69765;SDS011;57039;48.014;21.384;2023-03-14T04:25:32;25.20;;;13.05;;
69765;SDS011;57039;48.014;21.384;2023-03-14T04:26:37;23.37;;;11.27;;
69765;SDS011;57039;48.014;21.384;2023-03-14T04:27:40;27.47;;;13.70;;
69765;SDS011;57039;48.014;21.384;2023-03-14T04:28:49;37.83;;;16.95;;
69765;SDS011;57039;48.014;21.384;2023-03-14T04:29:52;38.15;;;16.90;;
69765;SDS011;57039;48.014;21.384;2023-03-14T04:30:56;33.90;;;15.50;;
69765;SDS011;57039;48.014;21.384;2023-03-14T04:31:59;34.08;;;15.43;;
69765;SDS011;57039;48.014;21.384;2023-03-14T04:33:02;25.77;;;12.98;;
69765;SDS011;57039;48.014;21.384;2023-03-14T04:34:06;36.72;;;16.12;;
69765;SDS011;57039;48.014;21.384;2023-03-14T04:35:09;37.40;;;16.10;;
69765;SDS011;57039;48.014;21.384;2023-03-14T04:36:12;33.47;;;15.00;;
69765;SDS011;57039;48.014;21.384;2023-03-14T04:37:15;24.57;;;12.03;;
69765;SDS011;57039;48.014;21.384;2023-03-14T04:38:19;19.03;;;9.40;;
69765;SDS011;57039;48.014;21.384;2023-03-14T04:39:22;15.55;;;8.55;;
69765;SDS011;57039;48.014;21.384;2023-03-14T04:40:26;17.70;;;8.73;;
69765;SDS011;57039;48.014;21.384;2023-03-14T04:41:29;18.35;;;9.35;;
69765;SDS011;57039;48.014;21.384;2023-03-14T04:42:32;18.87;;;9.50;;
69765;SDS011;57039;48.014;21.384;2023-03-14T04:43:35;21.55;;;11.75;;
69765;SDS011;57039;48.014;21.384;2023-03-14T04:44:39;28.55;;;12.93;;
69765;SDS011;57039;48.014;21.384;2023-03-14T04:45:43;32.50;;;13.57;;
69765;SDS011;57039;48.014;21.384;2023-03-14T04:46:46;28.17;;;13.35;;
69765;SDS011;57039;48.014;21.384;2023-03-14T04:47:49;21.33;;;9.87;;
69765;SDS011;57039;48.014;21.384;2023-03-14T04:48:53;19.73;;;9.03;;
69765;SDS011;57039;48.014;21.384;2023-03-14T04:49:56;15.25;;;9.02;;
69765;SDS011;57039;48.014;21.384;2023-03-14T04:50:59;13.65;;;8.45;;
69765;SDS011;57039;48.014;21.384;2023-03-14T04:52:04;16.80;;;8.82;;
69765;SDS011;57039;48.014;21.384;2023-03-14T04:53:07;16.65;;;8.18;;
69765;SDS011;57039;48.014;21.384;2023-03-14T04:54:11;18.20;;;9.48;;
69765;SDS011;57039;48.014;21.384;2023-03-14T04:55:15;18.52;;;10.18;;
69765;SDS011;57039;48.014;21.384;2023-03-14T04:56:18;21.62;;;11.60;;
69765;SDS011;57039;48.014;21.384;2023-03-14T04:57:21;20.23;;;10.18;;
69765;SDS011;57039;48.014;21.384;2023-03-14T04:58:25;16.87;;;8.67;;
69765;SDS011;57039;48.014;21.384;2023-03-14T04:59:28;22.13;;;10.83;;
69765;SDS011;57039;48.014;21.384;2023-03-14T05:00:31;21.52;;;10.25;;
69765;SDS011;57039;48.014;21.384;2023-03-14T05:01:35;23.98;;;12.98;;
69765;SDS011;57039;48.014;21.384;2023-03-14T05:02:39;20.35;;;11.73;;
69765;SDS011;57039;48.014;21.384;2023-03-14T05:03:46;19.80;;;9.27;;
69765;SDS011;57039;48.014;21.384;2023-03-14T05:04:49;18.30;;;7.57;;
69765;SDS011;57039;48.014;21.384;2023-03-14T05:05:53;17.20;;;8.52;;
69765;SDS011;57039;48.014;21.384;2023-03-14T05:06:59;17.73;;;9.45;;
69765;SDS011;57039;48.014;21.384;2023-03-14T05:08:02;19.90;;;10.18;;
69765;SDS011;57039;48.014;21.384;2023-03-14T05:09:05;18.80;;;9.37;;
69765;SDS011;57039;48.014;21.384;2023-03-14T05:10:09;18.60;;;8.33;;
69765;SDS011;57039;48.014;21.384;2023-03-14T05:11:16;16.15;;;8.50;;
69765;SDS011;57039;48.014;21.384;2023-03-14T05:12:19;15.35;;;8.70;;
69765;SDS011;57039;48.014;21.384;2023-03-14T05:13:23;18.33;;;9.25;;
69765;SDS011;57039;48.014;21.384;2023-03-14T05:14:26;16.80;;;8.60;;
69765;SDS011;57039;48.014;21.384;2023-03-14T05:15:29;17.00;;;8.88;;
69765;SDS011;57039;48.014;21.384;2023-03-14T05:16:33;17.77;;;9.25;;
69765;SDS011;57039;48.014;21.384;2023-03-14T05:17:36;20.20;;;9.57;;
69765;SDS011;57039;48.014;21.384;2023-03-14T05:18:39;18.83;;;10.38;;
69765;SDS011;57039;48.014;21.384;2023-03-14T05:19:42;16.47;;;9.30;;
69765;SDS011;57039;48.014;21.384;2023-03-14T05:20:45;17.50;;;9.00;;
69765;SDS011;57039;48.014;21.384;2023-03-14T05:21:49;15.88;;;8.93;;
69765;SDS011;57039;48.014;21.384;2023-03-14T05:22:54;16.20;;;8.40;;
69765;SDS011;57039;48.014;21.384;2023-03-14T05:23:57;14.50;;;8.18;;
69765;SDS011;57039;48.014;21.384;2023-03-14T05:25:01;19.00;;;9.30;;
69765;SDS011;57039;48.014;21.384;2023-03-14T05:26:04;17.37;;;9.63;;
69765;SDS011;57039;48.014;21.384;2023-03-14T05:27:08;15.23;;;8.60;;
69765;SDS011;57039;48.014;21.384;2023-03-14T05:28:12;16.02;;;8.95;;
69765;SDS011;57039;48.014;21.384;2023-03-14T05:29:16;15.43;;;9.13;;
69765;SDS011;57039;48.014;21.384;2023-03-14T05:30:19;15.80;;;8.13;;
69765;SDS011;57039;48.014;21.384;2023-03-14T05:31:23;14.67;;;8.77;;
69765;SDS011;57039;48.014;21.384;2023-03-14T05:32:26;15.15;;;8.35;;
69765;SDS011;57039;48.014;21.384;2023-03-14T05:33:29;15.52;;;8.95;;
69765;SDS011;57039;48.014;21.384;2023-03-14T05:34:32;19.58;;;9.05;;
69765;SDS011;57039;48.014;21.384;2023-03-14T05:35:36;14.90;;;8.02;;
69765;SDS011;57039;48.014;21.384;2023-03-14T05:36:40;14.60;;;8.20;;
69765;SDS011;57039;48.014;21.384;2023-03-14T05:37:43;15.43;;;8.77;;
69765;SDS011;57039;48.014;21.384;2023-03-14T05:38:48;13.98;;;8.15;;
69765;SDS011;57039;48.014;21.384;2023-03-14T05:39:52;14.13;;;8.88;;
69765;SDS011;57039;48.014;21.384;2023-03-14T05:40:55;15.47;;;8.93;;
69765;SDS011;57039;48.014;21.384;2023-03-14T05:42:00;16.47;;;9.27;;
69765;SDS011;57039;48.014;21.384;2023-03-14T05:43:04;15.75;;;8.02;;
69765;SDS011;57039;48.014;21.384;2023-03-14T05:44:10;16.77;;;8.82;;
69765;SDS011;57039;48.014;21.384;2023-03-14T05:45:13;15.27;;;8.57;;
69765;SDS011;57039;48.014;21.384;2023-03-14T05:46:16;13.00;;;7.90;;
69765;SDS011;57039;48.014;21.384;2023-03-14T05:47:19;15.65;;;7.80;;
69765;SDS011;57039;48.014;21.384;2023-03-14T05:48:23;21.50;;;8.82;;
69765;SDS011;57039;48.014;21.384;2023-03-14T05:49:26;17.65;;;9.07;;
69765;SDS011;57039;48.014;21.384;2023-03-14T05:50:29;16.75;;;8.73;;
69765;SDS011;57039;48.014;21.384;2023-03-14T05:51:34;16.03;;;7.97;;
69765;SDS011;57039;48.014;21.384;2023-03-14T05:52:38;15.83;;;8.53;;
69765;SDS011;57039;48.014;21.384;2023-03-14T05:53:41;18.62;;;8.48;;
69765;SDS011;57039;48.014;21.384;2023-03-14T05:54:45;14.57;;;8.10;;
69765;SDS011;57039;48.014;21.384;2023-03-14T05:55:52;17.85;;;9.57;;
69765;SDS011;57039;48.014;21.384;2023-03-14T05:56:59;21.42;;;10.55;;
69765;SDS011;57039;48.014;21.384;2023-03-14T05:58:02;20.23;;;9.27;;
69765;SDS011;57039;48.014;21.384;2023-03-14T05:59:08;16.52;;;8.20;;
69765;SDS011;57039;48.014;21.384;2023-03-14T06:00:12;18.33;;;9.50;;
69765;SDS011;57039;48.014;21.384;2023-03-14T06:01:19;23.15;;;11.70;;
69765;SDS011;57039;48.014;21.384;2023-03-14T06:02:23;19.73;;;12.17;;
69765;SDS011;57039;48.014;21.384;2023-03-14T06:03:26;16.93;;;11.07;;
69765;SDS011;57039;48.014;21.384;2023-03-14T06:04:29;15.95;;;9.80;;
69765;SDS011;57039;48.014;21.384;2023-03-14T06:05:33;17.77;;;9.55;;
69765;SDS011;57039;48.014;21.384;2023-03-14T06:06:36;13.75;;;8.18;;
69765;SDS011;57039;48.014;21.384;2023-03-14T06:07:39;14.43;;;8.10;;
69765;SDS011;57039;48.014;21.384;2023-03-14T06:08:43;13.07;;;8.07;;
69765;SDS011;57039;48.014;21.384;2023-03-14T06:09:46;40.40;;;22.67;;
69765;SDS011;57039;48.014;21.384;2023-03-14T06:10:51;36.38;;;18.20;;
69765;SDS011;57039;48.014;21.384;2023-03-14T06:12:00;67.50;;;30.70;;
69765;SDS011;57039;48.014;21.384;2023-03-14T06:13:05;47.17;;;23.50;;
69765;SDS011;57039;48.014;21.384;2023-03-14T06:14:09;18.70;;;10.73;;
69765;SDS011;57039;48.014;21.384;2023-03-14T06:15:15;19.87;;;10.48;;
69765;SDS011;57039;48.014;21.384;2023-03-14T06:16:18;41.33;;;19.10;;
69765;SDS011;57039;48.014;21.384;2023-03-14T06:17:21;20.73;;;9.52;;
69765;SDS011;57039;48.014;21.384;2023-03-14T06:18:26;61.53;;;18.15;;
69765;SDS011;57039;48.014;21.384;2023-03-14T06:19:30;81.32;;;22.55;;
69765;SDS011;57039;48.014;21.384;2023-03-14T06:20:33;69.43;;;22.37;;
69765;SDS011;57039;48.014;21.384;2023-03-14T06:21:39;86.03;;;26.87;;